Time;durP1;ratioP1;P1;durP2;ratioP2;P2;SDS_P1;SDS_P2;PMS_P1;PMS_P2;Temp;Humidity;BMP_temperature;BMP_pressure;BME280_temperature;BME280_humidity;BME280_pressure;Samples;Min_cycle;Max_cycle;Signal;HPM_P1;HPM_P2
2024/03/14 00:00:04;;;;;;;8.13;5.40;;;;;;;12.08;100.00;101112.66;2087893;28;20419;-64
2024/03/14 00:01:06;;;;;;;7.73;5.33;;;;;;;11.98;100.00;101089.47;2091069;28;20197;-64
2024/03/14 00:02:06;;;;;;;7.73;5.33;;;;;;;12.16;100.00;101114.09;2087830;28;20996;-64
2024/03/14 00:03:07;;;;;;;8.27;5.30;;;;;;;12.18;100.00;101106.88;2089261;28;20829;-64
2024/03/14 00:04:09;;;;;;;8.50;5.63;;;;;;;12.08;100.00;101101.56;2091332;28;20208;-64
2024/03/14 00:05:10;;;;;;;7.40;5.43;;;;;;;12.10;100.00;101108.25;2085361;28;20218;-64
2024/03/14 00:06:10;;;;;;;7.40;5.33;;;;;;;11.98;100.00;101097.81;2094383;28;20455;-64
2024/03/14 00:07:14;;;;;;;6.23;5.03;;;;;;;12.04;100.00;101104.41;2091134;28;20215;-64
2024/03/14 00:08:15;;;;;;;8.67;5.33;;;;;;;12.09;100.00;101105.91;2086557;28;20202;-64
2024/03/14 00:09:17;;;;;;;7.60;5.53;;;;;;;12.13;100.00;101101.84;2088853;28;20458;-64
2024/03/14 00:10:18;;;;;;;6.87;5.27;;;;;;;12.15;100.00;101106.97;2085975;28;20263;-64
2024/03/14 00:11:20;;;;;;;6.13;4.97;;;;;;;12.11;100.00;101103.47;2085849;28;20429;-64
2024/03/14 00:12:21;;;;;;;7.47;5.37;;;;;;;12.05;100.00;101100.41;2092317;28;20205;-64
2024/03/14 00:13:22;;;;;;;7.63;4.70;;;;;;;12.05;100.00;101102.44;2088557;28;20441;-64
2024/03/14 00:14:23;;;;;;;7.53;4.80;;;;;;;12.03;100.00;101100.06;2091342;28;20215;-64
2024/03/14 00:15:24;;;;;;;6.10;4.70;;;;;;;12.00;100.00;101089.81;2088893;28;20528;-64
2024/03/14 00:16:26;;;;;;;6.10;4.60;;;;;;;12.04;100.00;101100.88;2086260;28;20682;-64
2024/03/14 00:17:27;;;;;;;5.20;4.60;;;;;;;12.03;100.00;101097.28;2086897;28;20626;-64
2024/03/14 00:18:28;;;;;;;8.20;5.10;;;;;;;11.94;100.00;101090.78;2084684;28;20446;-64
2024/03/14 00:19:28;;;;;;;6.73;4.83;;;;;;;12.06;100.00;101107.56;2087776;28;20189;-64
2024/03/14 00:20:29;;;;;;;6.53;4.87;;;;;;;11.95;100.00;101090.31;2090493;28;20972;-64
2024/03/14 00:21:29;;;;;;;6.23;5.10;;;;;;;12.06;100.00;101104.78;2086352;28;20230;-64
2024/03/14 00:22:30;;;;;;;6.87;4.73;;;;;;;12.07;100.00;101098.00;2087327;28;20224;-64
2024/03/14 00:23:30;;;;;;;7.43;5.03;;;;;;;11.96;100.00;101097.47;2090524;28;20468;-63
2024/03/14 00:24:31;;;;;;;7.50;5.23;;;;;;;11.96;100.00;101093.91;2086393;28;20194;-64
2024/03/14 00:25:31;;;;;;;8.37;5.57;;;;;;;11.88;100.00;101090.50;2090167;28;20576;-64
2024/03/14 00:26:32;;;;;;;6.17;4.70;;;;;;;11.89;100.00;101100.38;2091686;28;20202;-64
2024/03/14 00:27:33;;;;;;;7.93;4.60;;;;;;;11.81;100.00;101098.19;2091326;28;20230;-64
2024/03/14 00:28:33;;;;;;;6.50;4.67;;;;;;;11.78;100.00;101097.06;2089119;28;20491;-64
2024/03/14 00:29:34;;;;;;;7.97;5.50;;;;;;;11.72;100.00;101100.75;2085553;28;20315;-64
2024/03/14 00:30:36;;;;;;;8.37;5.53;;;;;;;11.29;100.00;101048.09;2092005;28;20188;-64
2024/03/14 00:31:39;;;;;;;8.20;5.30;;;;;;;11.69;100.00;101104.41;2087235;28;20196;-64
2024/03/14 00:32:40;;;;;;;9.30;5.57;;;;;;;11.57;100.00;101096.66;2092988;28;20466;-64
2024/03/14 00:33:40;;;;;;;8.77;5.80;;;;;;;11.51;100.00;101085.31;2086513;28;20449;-64
2024/03/14 00:34:41;;;;;;;8.07;5.27;;;;;;;11.66;100.00;101103.25;2087607;28;20192;-64
2024/03/14 00:35:42;;;;;;;6.50;4.80;;;;;;;11.70;100.00;101097.63;2088497;28;20690;-64
2024/03/14 00:36:42;;;;;;;6.17;4.33;;;;;;;11.72;100.00;101097.97;2086300;28;20188;-64
2024/03/14 00:37:45;;;;;;;7.67;5.00;;;;;;;11.77;100.00;101097.47;2086182;28;20191;-64
2024/03/14 00:38:46;;;;;;;7.03;4.53;;;;;;;11.84;100.00;101089.78;2087975;28;20195;-64
2024/03/14 00:39:47;;;;;;;12.30;4.80;;;;;;;11.87;100.00;101096.47;2087900;28;21002;-64
2024/03/14 00:40:47;;;;;;;6.97;4.67;;;;;;;11.87;100.00;101090.91;2087174;28;20620;-63
2024/03/14 00:41:51;;;;;;;6.20;4.50;;;;;;;11.90;100.00;101096.41;2086631;28;20225;-64
2024/03/14 00:42:52;;;;;;;6.93;5.30;;;;;;;11.94;100.00;101088.00;2084770;28;20223;-64
2024/03/14 00:43:52;;;;;;;6.67;5.17;;;;;;;11.88;100.00;101073.06;2085947;28;20964;-63
2024/03/14 00:44:53;;;;;;;6.57;4.60;;;;;;;12.05;100.00;101085.75;2095180;28;20268;-64
2024/03/14 00:45:54;;;;;;;8.93;5.00;;;;;;;12.09;100.00;101089.25;2092919;28;20647;-63
2024/03/14 00:46:54;;;;;;;5.93;4.70;;;;;;;12.09;100.00;101083.69;2090781;28;20195;-64
2024/03/14 00:47:56;;;;;;;6.80;5.07;;;;;;;12.15;100.00;101079.94;2088263;28;20184;-64
2024/03/14 00:48:56;;;;;;;6.57;4.73;;;;;;;12.20;100.00;101078.66;2088298;28;20203;-64
2024/03/14 00:49:57;;;;;;;6.10;4.13;;;;;;;12.21;100.00;101074.66;2086892;28;20431;-63
2024/03/14 00:50:58;;;;;;;5.67;4.10;;;;;;;12.13;100.00;101062.16;2086972;28;20181;-64
2024/03/14 00:51:59;;;;;;;5.23;4.10;;;;;;;12.26;100.00;101074.94;2093256;28;20445;-63
2024/03/14 00:53:03;;;;;;;5.17;3.93;;;;;;;12.23;100.00;101078.59;2086795;28;20497;-64
2024/03/14 00:54:04;;;;;;;4.97;4.00;;;;;;;12.23;100.00;101080.56;2086584;28;20851;-64
2024/03/14 00:55:07;;;;;;;4.50;3.37;;;;;;;11.78;100.00;101018.53;2085315;28;20452;-63
2024/03/14 00:56:11;;;;;;;4.57;3.80;;;;;;;11.96;100.00;101041.13;2085873;28;20500;-64
2024/03/14 00:57:11;;;;;;;4.07;3.03;;;;;;;12.16;100.00;101077.97;2086595;28;20428;-64
2024/03/14 00:58:12;;;;;;;4.30;3.30;;;;;;;12.15;100.00;101079.19;2087790;28;20953;-63
2024/03/14 00:59:16;;;;;;;4.97;3.30;;;;;;;12.19;100.00;101082.66;2086154;28;20764;-64
2024/03/14 01:00:17;;;;;;;4.57;3.57;;;;;;;12.21;100.00;101078.25;2085004;28;20198;-64
2024/03/14 01:01:18;;;;;;;5.23;3.80;;;;;;;11.77;100.00;101023.31;2085501;28;20864;-64
2024/03/14 01:02:20;;;;;;;5.03;3.23;;;;;;;12.10;100.00;101083.25;2086283;28;20477;-64
2024/03/14 01:03:20;;;;;;;4.60;3.30;;;;;;;12.04;100.00;101087.75;2084773;28;20498;-64
2024/03/14 01:04:21;;;;;;;5.27;3.73;;;;;;;12.08;100.00;101085.69;2093526;28;20237;-64
2024/03/14 01:05:21;;;;;;;5.00;3.87;;;;;;;12.05;100.00;101082.97;2089132;28;20183;-64
2024/03/14 01:06:22;;;;;;;7.23;3.73;;;;;;;12.12;100.00;101080.81;2087026;28;20741;-63
2024/03/14 01:07:23;;;;;;;5.50;4.20;;;;;;;12.18;100.00;101086.63;2084882;28;20744;-64
2024/03/14 01:08:24;;;;;;;6.17;4.10;;;;;;;12.16;100.00;101089.06;2085237;28;20187;-63
2024/03/14 01:09:24;;;;;;;5.20;3.53;;;;;;;12.18;100.00;101084.66;2086191;28;20199;-64
2024/03/14 01:10:25;;;;;;;4.83;3.27;;;;;;;12.20;100.00;101081.44;2087157;28;20469;-63
2024/03/14 01:11:25;;;;;;;5.03;3.60;;;;;;;12.20;100.00;101075.91;2087429;28;20230;-63
2024/03/14 01:12:26;;;;;;;5.50;4.17;;;;;;;12.23;100.00;101083.34;2083969;28;20199;-64
2024/03/14 01:13:26;;;;;;;4.30;3.20;;;;;;;12.20;100.00;101079.44;2086095;28;20300;-63
2024/03/14 01:14:27;;;;;;;6.17;3.77;;;;;;;12.28;100.00;101088.38;2086150;28;20200;-63
2024/03/14 01:15:28;;;;;;;5.60;4.03;;;;;;;12.33;100.00;101090.66;2085530;28;20661;-64
2024/03/14 01:16:29;;;;;;;4.50;3.53;;;;;;;12.13;100.00;101064.94;2085548;28;20196;-63
2024/03/14 01:17:29;;;;;;;5.00;3.60;;;;;;;11.86;100.00;101022.69;2087662;28;21004;-64
2024/03/14 01:18:30;;;;;;;5.80;3.73;;;;;;;11.82;100.00;101010.88;2085927;28;20220;-64
2024/03/14 01:19:32;;;;;;;6.17;4.17;;;;;;;12.25;100.00;101083.72;2085412;28;20207;-64
2024/03/14 01:20:33;;;;;;;5.57;3.63;;;;;;;12.12;100.00;101077.25;2085672;28;20195;-63
2024/03/14 01:21:41;;;;;;;5.20;3.60;;;;;;;12.17;100.00;101080.31;2090303;28;20466;-63
2024/03/14 01:22:42;;;;;;;5.53;3.90;;;;;;;11.48;100.00;100964.03;2086331;28;21265;-63
2024/03/14 01:23:43;;;;;;;5.37;3.60;;;;;;;12.23;100.00;101075.81;2091960;28;20447;-63
2024/03/14 01:24:43;;;;;;;5.10;3.90;;;;;;;12.26;100.00;101082.50;2092735;28;21369;-63
2024/03/14 01:25:44;;;;;;;5.37;4.00;;;;;;;12.28;100.00;101075.28;2087062;28;20210;-63
2024/03/14 01:26:45;;;;;;;6.87;3.60;;;;;;;12.26;100.00;101082.50;2088565;28;20275;-64
2024/03/14 01:27:45;;;;;;;4.97;3.57;;;;;;;12.23;100.00;101081.34;2085254;28;20455;-64
2024/03/14 01:28:46;;;;;;;4.23;3.30;;;;;;;11.54;100.00;100969.88;2086337;28;20240;-64
2024/03/14 01:29:47;;;;;;;4.40;3.37;;;;;;;12.14;100.00;101063.72;2085512;28;20268;-63
2024/03/14 01:30:47;;;;;;;5.50;3.70;;;;;;;12.16;100.00;101066.84;2087481;28;20678;-63
2024/03/14 01:31:48;;;;;;;4.87;3.70;;;;;;;12.25;100.00;101078.16;2091768;28;20630;-64
2024/03/14 01:32:49;;;;;;;7.13;3.40;;;;;;;12.05;100.00;101050.41;2087312;28;20772;-64
2024/03/14 01:33:51;;;;;;;4.40;3.47;;;;;;;12.17;100.00;101071.97;2088157;28;20199;-64
2024/03/14 01:34:51;;;;;;;4.40;3.17;;;;;;;12.14;100.00;101064.50;2084585;28;21245;-63
2024/03/14 01:35:58;;;;;;;4.47;3.43;;;;;;;12.12;100.00;101074.47;2085621;28;20429;-64
2024/03/14 01:37:06;;;;;;;4.33;3.10;;;;;;;11.99;100.00;101065.28;2086630;28;20654;-63
2024/03/14 01:38:06;;;;;;;4.00;3.13;;;;;;;12.15;100.00;101077.16;2090467;28;20425;-64
2024/03/14 01:39:11;;;;;;;4.30;3.53;;;;;;;12.08;100.00;101069.00;2085567;28;21010;-64
2024/03/14 01:40:15;;;;;;;5.13;3.50;;;;;;;12.17;100.00;101080.31;2086985;28;20196;-63
2024/03/14 01:41:20;;;;;;;9.90;3.57;;;;;;;12.18;100.00;101078.31;2084698;28;21021;-64
2024/03/14 01:42:20;;;;;;;5.07;3.23;;;;;;;12.18;100.00;101076.31;2085742;28;20470;-63
2024/03/14 01:43:22;;;;;;;5.10;3.47;;;;;;;12.16;100.00;101077.97;2084678;28;20461;-63
2024/03/14 01:44:23;;;;;;;5.10;3.67;;;;;;;12.09;100.00;101067.78;2085523;28;20219;-64
2024/03/14 01:45:24;;;;;;;4.97;3.57;;;;;;;11.92;100.00;101063.44;2089442;28;20990;-64
2024/03/14 01:46:27;;;;;;;4.93;3.50;;;;;;;12.02;100.00;101079.06;2091864;28;20468;-63
2024/03/14 01:47:28;;;;;;;4.97;3.70;;;;;;;12.09;100.00;101072.59;2088066;28;20200;-64
2024/03/14 01:48:28;;;;;;;5.00;3.20;;;;;;;12.04;100.00;101079.41;2090476;28;20529;-63
2024/03/14 01:49:29;;;;;;;7.23;4.17;;;;;;;12.08;100.00;101076.53;2090132;28;20188;-63
2024/03/14 01:50:29;;;;;;;5.03;3.43;;;;;;;12.07;100.00;101080.53;2090732;28;20191;-63
2024/03/14 01:51:30;;;;;;;5.07;3.50;;;;;;;11.98;100.00;101083.91;2085936;28;20180;-63
2024/03/14 01:52:34;;;;;;;4.30;3.33;;;;;;;11.99;100.00;101079.16;2093402;28;20677;-63
2024/03/14 01:53:36;;;;;;;5.43;3.67;;;;;;;11.97;100.00;101071.25;2085451;28;20660;-63
2024/03/14 01:54:36;;;;;;;5.47;3.97;;;;;;;12.02;100.00;101075.50;2085604;28;20446;-63
2024/03/14 01:55:37;;;;;;;5.43;3.53;;;;;;;12.02;100.00;101084.63;2085519;28;20962;-63
2024/03/14 01:56:49;;;;;;;4.83;3.63;;;;;;;12.04;100.00;101087.75;2083400;28;20203;-63
2024/03/14 01:57:50;;;;;;;5.60;3.87;;;;;;;11.88;100.00;101043.28;2085364;28;20423;-63
2024/03/14 01:58:52;;;;;;;5.10;3.80;;;;;;;12.06;100.00;101077.00;2085011;28;20431;-63
2024/03/14 01:59:53;;;;;;;4.70;3.73;;;;;;;12.05;100.00;101077.44;2087561;28;20203;-63
2024/03/14 02:00:54;;;;;;;6.10;3.23;;;;;;;12.07;100.00;101086.09;2084898;28;20446;-63
2024/03/14 02:01:56;;;;;;;5.93;3.30;;;;;;;11.85;100.00;101043.34;2088543;28;20453;-63
2024/03/14 02:02:57;;;;;;;5.47;3.70;;;;;;;12.08;100.00;101074.56;2084529;28;20755;-63
2024/03/14 02:04:08;;;;;;;5.17;3.90;;;;;;;11.55;100.00;100996.41;2087747;28;20512;-63
2024/03/14 02:05:28;;;;;;;6.40;3.73;;;;;;;12.13;100.00;101082.38;2085380;28;20237;-63
2024/03/14 02:06:45;;;;;;;5.40;3.60;;;;;;;12.16;100.00;101073.19;2085345;28;20934;-63
2024/03/14 02:07:46;;;;;;;4.93;3.13;;;;;;;12.00;100.00;101080.72;2084559;28;20477;-64
2024/03/14 02:08:47;;;;;;;5.53;3.40;;;;;;;12.04;100.00;101084.19;2085459;28;20438;-63
2024/03/14 02:09:48;;;;;;;4.83;3.20;;;;;;;12.06;100.00;101079.78;2089295;28;21002;-63
2024/03/14 02:10:49;;;;;;;3.80;2.90;;;;;;;12.05;100.00;101080.97;2087454;28;20192;-64
2024/03/14 02:11:50;;;;;;;4.47;3.30;;;;;;;12.03;100.00;101074.28;2085425;28;20559;-63
2024/03/14 02:12:54;;;;;;;4.97;3.07;;;;;;;11.97;100.00;101076.00;2084493;28;20620;-64
2024/03/14 02:13:55;;;;;;;4.73;3.00;;;;;;;11.65;100.00;101048.97;2086627;28;20830;-63
2024/03/14 02:14:56;;;;;;;4.60;3.33;;;;;;;11.86;100.00;101070.72;2088344;28;20450;-64
2024/03/14 02:15:57;;;;;;;4.43;3.40;;;;;;;11.89;100.00;101077.41;2085670;28;20433;-64
2024/03/14 02:16:58;;;;;;;4.13;3.20;;;;;;;11.88;100.00;101079.38;2085447;28;20211;-63
2024/03/14 02:17:59;;;;;;;4.03;2.97;;;;;;;11.81;100.00;101062.09;2086328;28;20456;-64
2024/03/14 02:18:59;;;;;;;4.57;3.20;;;;;;;11.88;100.00;101075.84;2085657;28;20200;-63
2024/03/14 02:20:00;;;;;;;4.77;3.50;;;;;;;11.89;100.00;101075.38;2085417;28;20191;-64
2024/03/14 02:21:01;;;;;;;4.93;3.63;;;;;;;11.87;100.00;101079.81;2084731;28;20219;-63
2024/03/14 02:22:02;;;;;;;4.87;3.03;;;;;;;11.90;100.00;101081.72;2084806;28;20580;-63
2024/03/14 02:23:02;;;;;;;4.67;3.10;;;;;;;11.55;100.00;101021.38;2090386;28;20269;-63
2024/03/14 02:24:03;;;;;;;4.27;2.83;;;;;;;11.92;100.00;101073.75;2089831;28;20628;-63
2024/03/14 02:25:04;;;;;;;6.17;3.70;;;;;;;11.96;100.00;101089.13;2087097;28;20283;-64
2024/03/14 02:26:06;;;;;;;5.07;3.10;;;;;;;11.78;100.00;101065.75;2090205;28;20226;-64
2024/03/14 02:27:09;;;;;;;4.50;3.20;;;;;;;11.71;100.00;101040.88;2087894;28;20270;-64
2024/03/14 02:28:10;;;;;;;7.77;3.43;;;;;;;11.82;100.00;101060.88;2085213;28;20570;-64
2024/03/14 02:29:11;;;;;;;6.40;3.67;;;;;;;11.75;100.00;101056.28;2089426;28;20515;-64
2024/03/14 02:30:12;;;;;;;5.77;3.80;;;;;;;11.84;100.00;101067.56;2088227;28;20426;-64
2024/03/14 02:31:12;;;;;;;5.33;3.33;;;;;;;11.82;100.00;101070.00;2088061;28;20728;-64
2024/03/14 02:32:13;;;;;;;6.00;3.57;;;;;;;11.87;100.00;101079.81;2086881;28;20188;-64
2024/03/14 02:33:13;;;;;;;4.90;3.73;;;;;;;11.85;100.00;101069.16;2086290;28;20581;-64
2024/03/14 02:34:14;;;;;;;5.63;3.50;;;;;;;11.84;100.00;101075.13;2085955;28;20573;-64
2024/03/14 02:35:15;;;;;;;4.33;3.27;;;;;;;11.80;100.00;101078.00;2086087;28;20187;-64
2024/03/14 02:36:15;;;;;;;5.27;3.50;;;;;;;11.83;100.00;101074.34;2087234;28;20513;-63
2024/03/14 02:37:16;;;;;;;4.20;2.87;;;;;;;11.80;100.00;101075.22;2089261;28;20669;-64
2024/03/14 02:38:17;;;;;;;4.57;3.27;;;;;;;11.78;100.00;101074.84;2093397;28;20198;-64
2024/03/14 02:39:22;;;;;;;4.97;3.40;;;;;;;11.75;100.00;101077.69;2088381;28;20493;-64
2024/03/14 02:40:22;;;;;;;4.53;3.03;;;;;;;11.64;100.00;101077.16;2086545;28;20319;-64
2024/03/14 02:41:23;;;;;;;5.83;3.20;;;;;;;11.69;100.00;101082.19;2086728;28;20442;-64
2024/03/14 02:42:23;;;;;;;4.97;3.37;;;;;;;11.11;100.00;100985.84;2086192;28;20291;-63
2024/03/14 02:43:25;;;;;;;7.10;4.43;;;;;;;11.67;100.00;101070.72;2095999;28;20187;-64
2024/03/14 02:44:26;;;;;;;4.47;2.73;;;;;;;11.58;100.00;101076.81;2086906;28;20525;-64
2024/03/14 02:45:26;;;;;;;4.03;2.60;;;;;;;11.45;100.00;101083.44;2089511;28;20286;-64
2024/03/14 02:46:27;;;;;;;5.47;2.93;;;;;;;11.29;100.00;101053.66;2090349;28;20184;-64
2024/03/14 02:47:27;;;;;;;3.77;2.67;;;;;;;11.48;100.00;101083.38;2088495;28;20204;-64
2024/03/14 02:48:28;;;;;;;5.03;2.70;;;;;;;11.48;100.00;101077.06;2095057;28;20182;-64
2024/03/14 02:49:28;;;;;;;4.87;3.17;;;;;;;11.49;100.00;101079.41;2096481;28;20681;-64
2024/03/14 02:50:29;;;;;;;4.33;2.90;;;;;;;11.09;100.00;101019.56;2089588;28;20672;-64
2024/03/14 02:51:29;;;;;;;6.10;2.60;;;;;;;11.44;100.00;101079.91;2086878;28;20190;-63
2024/03/14 02:52:30;;;;;;;4.13;2.80;;;;;;;11.50;100.00;101078.19;2086627;28;20188;-64
2024/03/14 02:53:30;;;;;;;4.43;2.73;;;;;;;11.40;100.00;101086.72;2086782;28;20613;-64
2024/03/14 02:54:31;;;;;;;3.73;2.23;;;;;;;11.37;100.00;101082.03;2086812;28;20181;-64
2024/03/14 02:55:31;;;;;;;4.20;2.57;;;;;;;11.37;100.00;101076.50;2088389;28;20270;-64
2024/03/14 02:56:32;;;;;;;5.33;3.00;;;;;;;11.36;100.00;101063.81;2090980;28;20184;-64
2024/03/14 02:57:34;;;;;;;4.17;2.57;;;;;;;11.47;100.00;101086.59;2087838;28;20203;-64
2024/03/14 02:58:38;;;;;;;4.77;2.60;;;;;;;10.47;100.00;100925.31;2087895;28;20552;-64
2024/03/14 02:59:38;;;;;;;4.70;2.80;;;;;;;10.60;100.00;100953.97;2086445;28;20533;-64
2024/03/14 03:00:39;;;;;;;4.00;2.80;;;;;;;11.35;100.00;101078.88;2085990;28;20426;-64
2024/03/14 03:01:40;;;;;;;3.90;2.60;;;;;;;11.40;100.00;101079.19;2087915;28;20564;-64
2024/03/14 03:02:41;;;;;;;3.50;2.20;;;;;;;11.42;100.00;101082.31;2088105;28;20252;-64
2024/03/14 03:03:42;;;;;;;3.07;2.27;;;;;;;10.93;100.00;101013.94;2086470;28;20455;-64
2024/03/14 03:04:44;;;;;;;3.60;2.33;;;;;;;11.38;100.00;101078.81;2086378;28;20647;-64
2024/03/14 03:05:48;;;;;;;3.73;2.10;;;;;;;11.21;100.00;101048.63;2086243;28;20700;-64
2024/03/14 03:06:53;;;;;;;2.67;1.87;;;;;;;11.45;100.00;101086.22;2085883;28;21004;-64
2024/03/14 03:07:54;;;;;;;3.27;2.03;;;;;;;11.46;100.00;101080.25;2084796;28;20472;-64
2024/03/14 03:08:57;;;;;;;3.80;1.83;;;;;;;11.50;100.00;101086.50;2087424;28;20528;-63
2024/03/14 03:09:58;;;;;;;4.33;2.00;;;;;;;11.44;100.00;101074.34;2093174;28;20973;-64
2024/03/14 03:10:58;;;;;;;4.33;1.90;;;;;;;11.43;100.00;101069.22;2086455;28;20919;-64
2024/03/14 03:11:59;;;;;;;4.00;2.43;;;;;;;11.46;100.00;101080.25;2085060;28;20196;-64
2024/03/14 03:12:59;;;;;;;3.87;2.40;;;;;;;11.49;100.00;101090.50;2085654;28;20197;-64
2024/03/14 03:14:00;;;;;;;3.53;2.27;;;;;;;11.39;100.00;101074.06;2086670;28;20583;-64
2024/03/14 03:15:00;;;;;;;4.27;2.03;;;;;;;11.44;100.00;101082.69;2092418;28;20217;-63
2024/03/14 03:16:04;;;;;;;3.57;2.13;;;;;;;11.51;100.00;101090.06;2086666;28;20669;-64
2024/03/14 03:17:07;;;;;;;2.97;2.10;;;;;;;11.54;100.00;101092.00;2087188;28;20196;-64
2024/03/14 03:18:08;;;;;;;3.73;2.57;;;;;;;11.55;100.00;101093.56;2084896;28;20902;-64
2024/03/14 03:19:11;;;;;;;5.47;2.40;;;;;;;11.50;100.00;101097.63;2086257;28;20442;-64
2024/03/14 03:20:12;;;;;;;3.77;2.53;;;;;;;11.57;100.00;101096.66;2085900;28;20208;-64
2024/03/14 03:21:12;;;;;;;2.67;1.97;;;;;;;11.51;100.00;101092.84;2091747;28;20468;-64
2024/03/14 03:22:13;;;;;;;2.97;1.97;;;;;;;11.43;100.00;101097.75;2086861;28;20564;-64
2024/03/14 03:23:17;;;;;;;4.43;1.93;;;;;;;11.44;100.00;101093.78;2086490;28;20193;-64
2024/03/14 03:24:17;;;;;;;3.23;2.17;;;;;;;11.48;100.00;101094.47;2086361;28;20204;-64
2024/03/14 03:25:18;;;;;;;2.47;1.77;;;;;;;11.50;100.00;101102.38;2086225;28;20457;-64
2024/03/14 03:26:19;;;;;;;2.60;1.37;;;;;;;11.52;100.00;101100.75;2086679;28;20204;-64
2024/03/14 03:27:19;;;;;;;1.87;1.30;;;;;;;11.52;100.00;101109.06;2086031;28;20184;-64
2024/03/14 03:28:22;;;;;;;2.53;1.60;;;;;;;11.32;100.00;101074.97;2087258;28;20192;-64
2024/03/14 03:29:22;;;;;;;2.90;1.50;;;;;;;11.48;100.00;101099.25;2089051;28;20180;-64
2024/03/14 03:30:23;;;;;;;2.63;1.43;;;;;;;11.52;100.00;101103.50;2086509;28;20506;-64
2024/03/14 03:31:23;;;;;;;1.57;1.13;;;;;;;11.55;100.00;101107.44;2086534;28;20284;-64
2024/03/14 03:32:24;;;;;;;2.37;1.50;;;;;;;11.56;100.00;101103.44;2085098;28;20623;-64
2024/03/14 03:33:27;;;;;;;3.37;1.50;;;;;;;11.62;100.00;101101.75;2085960;28;20650;-64
2024/03/14 03:34:27;;;;;;;2.10;1.43;;;;;;;11.64;100.00;101105.66;2086557;28;20183;-64
2024/03/14 03:35:28;;;;;;;1.80;1.20;;;;;;;11.59;100.00;101111.72;2089347;28;20461;-64
2024/03/14 03:36:29;;;;;;;1.07;0.87;;;;;;;11.56;100.00;101103.44;2086416;28;20185;-64
2024/03/14 03:37:30;;;;;;;1.60;1.10;;;;;;;10.88;100.00;101013.63;2084854;28;20204;-64
2024/03/14 03:38:38;;;;;;;2.30;1.00;;;;;;;11.32;100.00;101113.06;2087783;28;20447;-64
2024/03/14 03:39:39;;;;;;;1.67;0.70;;;;;;;11.22;100.00;101112.03;2086689;28;20188;-64
2024/03/14 03:40:43;;;;;;;1.73;0.80;;;;;;;11.15;100.00;101111.38;2085952;28;20843;-64
2024/03/14 03:41:43;;;;;;;1.63;0.80;;;;;;;11.02;100.00;101116.00;2086213;28;20462;-63
2024/03/14 03:42:45;;;;;;;2.03;1.07;;;;;;;10.90;100.00;101116.56;2087853;28;20473;-64
2024/03/14 03:43:46;;;;;;;1.30;0.97;;;;;;;10.84;100.00;101121.03;2090389;28;20228;-64
2024/03/14 03:44:46;;;;;;;0.73;0.50;;;;;;;10.71;100.00;101109.00;2087484;28;20458;-64
2024/03/14 03:45:47;;;;;;;0.83;0.60;;;;;;;10.74;100.00;101114.47;2087192;28;20204;-64
2024/03/14 03:46:47;;;;;;;1.60;0.80;;;;;;;10.70;100.00;101115.72;2086469;28;20920;-64
2024/03/14 03:47:48;;;;;;;0.67;0.60;;;;;;;10.63;100.00;101121.41;2085163;28;20242;-64
2024/03/14 03:48:49;;;;;;;1.00;0.60;;;;;;;10.58;100.00;101119.91;2088565;28;20188;-64
2024/03/14 03:49:49;;;;;;;0.90;0.53;;;;;;;10.25;100.00;101070.16;2085960;28;20229;-63
2024/03/14 03:50:50;;;;;;;2.80;0.60;;;;;;;10.55;100.00;101126.28;2085589;28;20220;-64
2024/03/14 03:51:52;;;;;;;1.70;0.30;;;;;;;10.53;100.00;101112.06;2086112;28;20200;-64
2024/03/14 03:52:52;;;;;;;0.53;0.40;;;;;;;10.52;100.00;101120.78;2085809;28;20207;-64
2024/03/14 03:53:53;;;;;;;0.70;0.40;;;;;;;10.44;100.00;101128.44;2084193;28;20956;-63
2024/03/14 03:54:53;;;;;;;0.60;0.30;;;;;;;10.41;100.00;101120.19;2087824;28;20192;-63
2024/03/14 03:55:54;;;;;;;0.50;0.40;;;;;;;10.38;100.00;101124.56;2087334;28;20205;-64
2024/03/14 03:56:54;;;;;;;0.30;0.30;;;;;;;10.32;100.00;101126.25;2085875;28;20322;-64
2024/03/14 03:57:56;;;;;;;1.13;0.40;;;;;;;10.31;100.00;101124.66;2085577;28;20203;-64
2024/03/14 03:58:58;;;;;;;0.20;0.20;;;;;;;10.29;100.00;101129.03;2086160;28;20296;-64
2024/03/14 03:59:59;;;;;;;0.97;0.37;;;;;;;10.29;100.00;101131.81;2084471;28;20918;-64
2024/03/14 04:01:12;;;;;;;0.43;0.30;;;;;;;10.25;100.00;101136.66;2086202;28;20967;-64
2024/03/14 04:02:12;;;;;;;0.30;0.30;;;;;;;10.23;100.00;101127.94;2085595;28;20418;-64
2024/03/14 04:03:15;;;;;;;0.13;0.13;;;;;;;10.29;100.00;101132.59;2088318;28;20476;-63
2024/03/14 04:04:16;;;;;;;0.60;0.30;;;;;;;10.02;100.00;101092.22;2085473;28;20547;-64
2024/03/14 04:05:17;;;;;;;0.27;0.27;;;;;;;10.31;100.00;101124.66;2086152;28;20458;-64
2024/03/14 04:06:18;;;;;;;0.63;0.20;;;;;;;10.31;100.00;101126.66;2085432;28;20465;-64
2024/03/14 04:07:19;;;;;;;0.23;0.20;;;;;;;10.32;100.00;101125.44;2085324;28;20191;-64
2024/03/14 04:08:20;;;;;;;0.10;0.10;;;;;;;10.26;100.00;101124.34;2085070;28;20550;-64
2024/03/14 04:09:21;;;;;;;0.20;0.20;;;;;;;10.28;100.00;101133.81;2088479;28;20516;-64
2024/03/14 04:10:24;;;;;;;0.50;0.30;;;;;;;10.32;100.00;101131.00;2085700;28;20194;-64
2024/03/14 04:11:24;;;;;;;0.20;0.20;;;;;;;10.36;100.00;101128.97;2085942;28;20222;-64
2024/03/14 04:12:25;;;;;;;0.60;0.30;;;;;;;10.33;100.00;101130.56;2085603;28;20430;-64
2024/03/14 04:13:28;;;;;;;0.40;0.30;;;;;;;10.42;100.00;101130.84;2085222;28;20244;-64
2024/03/14 04:14:28;;;;;;;0.20;0.20;;;;;;;10.53;100.00;101133.44;2090592;28;20178;-64
2024/03/14 04:15:30;;;;;;;0.73;0.37;;;;;;;10.58;100.00;101138.50;2087015;28;20623;-64
2024/03/14 04:16:31;;;;;;;0.50;0.30;;;;;;;10.59;100.00;101127.00;2087731;28;20195;-64
2024/03/14 04:17:33;;;;;;;0.50;0.40;;;;;;;10.66;100.00;101131.66;2085696;28;20443;-64
2024/03/14 04:18:34;;;;;;;0.20;0.20;;;;;;;10.71;100.00;101129.16;2086223;28;20445;-64
2024/03/14 04:19:35;;;;;;;0.40;0.30;;;;;;;10.74;100.00;101142.22;2085585;28;20455;-64
2024/03/14 04:20:37;;;;;;;0.30;0.20;;;;;;;10.77;100.00;101135.03;2085319;28;20756;-65
2024/03/14 04:21:38;;;;;;;0.50;0.30;;;;;;;10.83;100.00;101141.66;2086007;28;20190;-64
2024/03/14 04:22:40;;;;;;;1.80;0.20;;;;;;;10.78;100.00;101134.63;2087957;28;20473;-64
2024/03/14 04:23:40;;;;;;;0.40;0.20;;;;;;;10.51;100.00;101111.69;2086117;28;20207;-64
2024/03/14 04:24:41;;;;;;;0.20;0.20;;;;;;;10.69;100.00;101130.78;2085771;28;20462;-64
2024/03/14 04:25:42;;;;;;;0.30;0.30;;;;;;;10.78;100.00;101137.41;2086992;28;20196;-65
2024/03/14 04:26:43;;;;;;;0.47;0.37;;;;;;;10.75;100.00;101138.22;2090755;28;20455;-64
2024/03/14 04:27:45;;;;;;;0.40;0.30;;;;;;;10.72;100.00;101132.75;2085731;28;20184;-64
2024/03/14 04:28:46;;;;;;;0.60;0.40;;;;;;;10.44;100.00;101094.38;2093507;28;20418;-64
2024/03/14 04:29:47;;;;;;;0.30;0.30;;;;;;;10.85;100.00;101162.22;2086032;28;20449;-64
2024/03/14 04:30:48;;;;;;;2.07;0.33;;;;;;;10.65;100.00;101111.47;2085270;28;20657;-64
2024/03/14 04:31:50;;;;;;;0.13;0.13;;;;;;;10.78;100.00;101142.94;2085333;28;20817;-64
2024/03/14 04:32:51;;;;;;;0.77;0.30;;;;;;;10.80;100.00;101134.97;2086145;28;20236;-64
2024/03/14 04:33:52;;;;;;;0.70;0.40;;;;;;;10.84;100.00;101140.44;2085627;28;20552;-64
2024/03/14 04:34:53;;;;;;;0.50;0.40;;;;;;;10.77;100.00;101138.56;2086683;28;20547;-64
2024/03/14 04:35:56;;;;;;;1.17;0.30;;;;;;;10.85;100.00;101142.81;2087555;28;20222;-64
2024/03/14 04:36:57;;;;;;;0.23;0.20;;;;;;;10.80;100.00;101132.19;2084826;28;20545;-64
2024/03/14 04:37:57;;;;;;;0.20;0.20;;;;;;;10.82;100.00;101140.88;2086339;28;20442;-63
2024/03/14 04:38:58;;;;;;;0.20;0.20;;;;;;;10.84;100.00;101140.44;2089420;28;20279;-64
2024/03/14 04:39:58;;;;;;;0.10;0.10;;;;;;;10.85;100.00;101136.47;2085256;28;20661;-64
2024/03/14 04:41:00;;;;;;;1.27;0.50;;;;;;;10.89;100.00;101146.31;2085670;28;20657;-63
2024/03/14 04:42:00;;;;;;;0.27;0.20;;;;;;;10.87;100.00;101143.16;2086543;28;20211;-63